Terminal Aerodrome Forecast
Issued by NWS

Home | Current Version | Previous Version | Text Only | Print | Product List | Glossary On
Versions: 1 2 3 4 5 6 7 8 9 10 11 12 13 14 15
997
FTUS43 KILX 242338
TAFDEC
TAF
KDEC 242338Z 2500/2524 20010KT P6SM BKN070
     FM250500 15008KT 5SM -SHRA VCTS OVC035CB
     FM250700 15006KT 4SM SHRA BR VCTS OVC025CB
     FM251300 15010G18KT 5SM -SHRA OVC015
     FM251900 17015G22KT P6SM VCSH OVC045=

USA.gov is the U.S. government's official web portal to all federal, state and local government web resources and services.